sensor_id;sensor_type;location;lat;lon;timestamp;P1;durP1;ratioP1;P2;durP2;ratioP2
49722;SDS011;43484;43.608;1.458;2023-07-30T00:00:49;1.67;;;0.50;;
49722;SDS011;43484;43.608;1.458;2023-07-30T00:03:17;1.52;;;0.50;;
49722;SDS011;43484;43.608;1.458;2023-07-30T00:05:51;0.98;;;0.50;;
49722;SDS011;43484;43.608;1.458;2023-07-30T00:08:19;1.10;;;0.45;;
49722;SDS011;43484;43.608;1.458;2023-07-30T00:10:46;1.95;;;0.60;;
49722;SDS011;43484;43.608;1.458;2023-07-30T00:13:12;1.67;;;0.50;;
49722;SDS011;43484;43.608;1.458;2023-07-30T00:15:39;3.78;;;0.50;;
49722;SDS011;43484;43.608;1.458;2023-07-30T00:18:06;2.60;;;0.52;;
49722;SDS011;43484;43.608;1.458;2023-07-30T00:20:35;1.67;;;0.80;;
49722;SDS011;43484;43.608;1.458;2023-07-30T00:23:02;1.92;;;0.65;;
49722;SDS011;43484;43.608;1.458;2023-07-30T00:25:29;1.30;;;0.60;;
49722;SDS011;43484;43.608;1.458;2023-07-30T00:27:55;3.30;;;0.70;;
49722;SDS011;43484;43.608;1.458;2023-07-30T00:30:22;0.93;;;0.50;;
49722;SDS011;43484;43.608;1.458;2023-07-30T00:32:49;2.38;;;0.60;;
49722;SDS011;43484;43.608;1.458;2023-07-30T00:35:15;2.40;;;0.50;;
49722;SDS011;43484;43.608;1.458;2023-07-30T00:37:42;0.93;;;0.63;;
49722;SDS011;43484;43.608;1.458;2023-07-30T00:40:09;1.35;;;0.60;;
49722;SDS011;43484;43.608;1.458;2023-07-30T00:42:36;3.33;;;0.75;;
49722;SDS011;43484;43.608;1.458;2023-07-30T00:45:03;3.03;;;0.63;;
49722;SDS011;43484;43.608;1.458;2023-07-30T00:47:30;1.80;;;0.57;;
49722;SDS011;43484;43.608;1.458;2023-07-30T00:49:57;1.10;;;0.52;;
49722;SDS011;43484;43.608;1.458;2023-07-30T00:52:24;2.33;;;0.90;;
49722;SDS011;43484;43.608;1.458;2023-07-30T00:54:52;1.38;;;0.50;;
49722;SDS011;43484;43.608;1.458;2023-07-30T00:57:21;0.77;;;0.57;;
49722;SDS011;43484;43.608;1.458;2023-07-30T00:59:49;1.20;;;0.80;;
49722;SDS011;43484;43.608;1.458;2023-07-30T01:02:17;1.38;;;0.50;;
49722;SDS011;43484;43.608;1.458;2023-07-30T01:04:44;4.82;;;0.70;;
49722;SDS011;43484;43.608;1.458;2023-07-30T01:07:11;2.65;;;0.60;;
49722;SDS011;43484;43.608;1.458;2023-07-30T01:09:38;2.70;;;0.85;;
49722;SDS011;43484;43.608;1.458;2023-07-30T01:12:05;2.00;;;0.60;;
49722;SDS011;43484;43.608;1.458;2023-07-30T01:14:33;2.35;;;0.57;;
49722;SDS011;43484;43.608;1.458;2023-07-30T01:17:01;1.08;;;0.60;;
49722;SDS011;43484;43.608;1.458;2023-07-30T01:19:28;6.32;;;0.88;;
49722;SDS011;43484;43.608;1.458;2023-07-30T01:21:54;2.97;;;0.80;;
49722;SDS011;43484;43.608;1.458;2023-07-30T01:24:21;1.90;;;0.70;;
49722;SDS011;43484;43.608;1.458;2023-07-30T01:26:59;2.38;;;0.82;;
49722;SDS011;43484;43.608;1.458;2023-07-30T01:29:34;1.52;;;0.50;;
49722;SDS011;43484;43.608;1.458;2023-07-30T01:32:04;1.87;;;0.80;;
49722;SDS011;43484;43.608;1.458;2023-07-30T01:34:36;1.45;;;0.60;;
49722;SDS011;43484;43.608;1.458;2023-07-30T01:37:05;1.40;;;0.60;;
49722;SDS011;43484;43.608;1.458;2023-07-30T01:39:36;1.95;;;0.60;;
49722;SDS011;43484;43.608;1.458;2023-07-30T01:42:05;2.60;;;0.80;;
49722;SDS011;43484;43.608;1.458;2023-07-30T01:44:32;2.67;;;0.60;;
49722;SDS011;43484;43.608;1.458;2023-07-30T01:46:59;2.30;;;0.85;;
49722;SDS011;43484;43.608;1.458;2023-07-30T01:49:25;4.97;;;1.00;;
49722;SDS011;43484;43.608;1.458;2023-07-30T01:51:52;1.75;;;0.88;;
49722;SDS011;43484;43.608;1.458;2023-07-30T01:54:18;2.72;;;1.20;;
49722;SDS011;43484;43.608;1.458;2023-07-30T01:56:45;1.67;;;0.70;;
49722;SDS011;43484;43.608;1.458;2023-07-30T01:59:12;2.83;;;0.73;;
49722;SDS011;43484;43.608;1.458;2023-07-30T02:01:39;2.78;;;0.75;;
49722;SDS011;43484;43.608;1.458;2023-07-30T02:04:06;2.30;;;0.70;;
49722;SDS011;43484;43.608;1.458;2023-07-30T02:06:33;1.67;;;0.60;;
49722;SDS011;43484;43.608;1.458;2023-07-30T02:08:59;3.50;;;0.77;;
49722;SDS011;43484;43.608;1.458;2023-07-30T02:11:26;2.75;;;0.85;;
49722;SDS011;43484;43.608;1.458;2023-07-30T02:13:53;2.63;;;0.90;;
49722;SDS011;43484;43.608;1.458;2023-07-30T02:16:20;2.33;;;0.50;;
49722;SDS011;43484;43.608;1.458;2023-07-30T02:18:46;4.60;;;0.85;;
49722;SDS011;43484;43.608;1.458;2023-07-30T02:21:13;1.77;;;0.95;;
49722;SDS011;43484;43.608;1.458;2023-07-30T02:23:40;2.40;;;0.80;;
49722;SDS011;43484;43.608;1.458;2023-07-30T02:26:06;2.17;;;0.88;;
49722;SDS011;43484;43.608;1.458;2023-07-30T02:28:33;1.77;;;0.80;;
49722;SDS011;43484;43.608;1.458;2023-07-30T02:31:00;3.92;;;0.70;;
49722;SDS011;43484;43.608;1.458;2023-07-30T02:33:26;3.00;;;0.70;;
49722;SDS011;43484;43.608;1.458;2023-07-30T02:35:53;2.28;;;0.88;;
49722;SDS011;43484;43.608;1.458;2023-07-30T02:38:19;3.03;;;0.60;;
49722;SDS011;43484;43.608;1.458;2023-07-30T02:40:46;6.50;;;0.82;;
49722;SDS011;43484;43.608;1.458;2023-07-30T02:43:13;1.65;;;0.80;;
49722;SDS011;43484;43.608;1.458;2023-07-30T02:45:39;4.78;;;0.80;;
49722;SDS011;43484;43.608;1.458;2023-07-30T02:48:06;4.85;;;1.25;;
49722;SDS011;43484;43.608;1.458;2023-07-30T02:50:33;3.38;;;0.85;;
49722;SDS011;43484;43.608;1.458;2023-07-30T02:52:59;4.18;;;0.90;;
49722;SDS011;43484;43.608;1.458;2023-07-30T02:55:26;4.18;;;0.60;;
49722;SDS011;43484;43.608;1.458;2023-07-30T02:57:52;4.70;;;0.85;;
49722;SDS011;43484;43.608;1.458;2023-07-30T03:00:19;2.92;;;1.00;;
49722;SDS011;43484;43.608;1.458;2023-07-30T03:02:47;4.65;;;0.90;;
49722;SDS011;43484;43.608;1.458;2023-07-30T03:05:14;0.93;;;0.60;;
49722;SDS011;43484;43.608;1.458;2023-07-30T03:07:40;5.82;;;0.70;;
49722;SDS011;43484;43.608;1.458;2023-07-30T03:10:07;5.88;;;0.63;;
49722;SDS011;43484;43.608;1.458;2023-07-30T03:12:34;0.60;;;0.40;;
49722;SDS011;43484;43.608;1.458;2023-07-30T03:15:00;8.02;;;0.88;;
49722;SDS011;43484;43.608;1.458;2023-07-30T03:17:27;3.53;;;0.63;;
49722;SDS011;43484;43.608;1.458;2023-07-30T03:19:53;2.58;;;0.80;;
49722;SDS011;43484;43.608;1.458;2023-07-30T03:22:20;3.85;;;0.70;;
49722;SDS011;43484;43.608;1.458;2023-07-30T03:24:47;6.57;;;0.95;;
49722;SDS011;43484;43.608;1.458;2023-07-30T03:27:14;5.50;;;0.60;;
49722;SDS011;43484;43.608;1.458;2023-07-30T03:29:40;4.00;;;0.80;;
49722;SDS011;43484;43.608;1.458;2023-07-30T03:32:07;4.32;;;1.08;;
49722;SDS011;43484;43.608;1.458;2023-07-30T03:34:34;3.78;;;0.68;;
49722;SDS011;43484;43.608;1.458;2023-07-30T03:37:00;4.47;;;0.80;;
49722;SDS011;43484;43.608;1.458;2023-07-30T03:39:27;4.50;;;1.13;;
49722;SDS011;43484;43.608;1.458;2023-07-30T03:41:54;3.90;;;0.60;;
49722;SDS011;43484;43.608;1.458;2023-07-30T03:44:20;2.20;;;0.60;;
49722;SDS011;43484;43.608;1.458;2023-07-30T03:46:47;3.42;;;0.65;;
49722;SDS011;43484;43.608;1.458;2023-07-30T03:49:13;1.75;;;0.68;;
49722;SDS011;43484;43.608;1.458;2023-07-30T03:51:40;3.28;;;0.95;;
49722;SDS011;43484;43.608;1.458;2023-07-30T03:54:07;5.20;;;0.88;;
49722;SDS011;43484;43.608;1.458;2023-07-30T03:56:33;5.95;;;0.85;;
49722;SDS011;43484;43.608;1.458;2023-07-30T03:59:00;4.20;;;0.70;;
49722;SDS011;43484;43.608;1.458;2023-07-30T04:01:26;3.22;;;0.90;;
49722;SDS011;43484;43.608;1.458;2023-07-30T04:03:54;4.95;;;0.90;;
49722;SDS011;43484;43.608;1.458;2023-07-30T04:06:21;4.55;;;1.10;;
49722;SDS011;43484;43.608;1.458;2023-07-30T04:08:47;4.30;;;1.02;;
49722;SDS011;43484;43.608;1.458;2023-07-30T04:11:14;1.35;;;0.80;;
49722;SDS011;43484;43.608;1.458;2023-07-30T04:13:41;7.40;;;0.70;;
49722;SDS011;43484;43.608;1.458;2023-07-30T04:16:08;9.18;;;0.75;;
49722;SDS011;43484;43.608;1.458;2023-07-30T04:18:35;2.67;;;0.80;;
49722;SDS011;43484;43.608;1.458;2023-07-30T04:21:01;3.53;;;1.10;;
49722;SDS011;43484;43.608;1.458;2023-07-30T04:23:28;3.30;;;0.90;;
49722;SDS011;43484;43.608;1.458;2023-07-30T04:25:55;5.07;;;0.85;;
49722;SDS011;43484;43.608;1.458;2023-07-30T04:28:22;5.78;;;0.80;;
49722;SDS011;43484;43.608;1.458;2023-07-30T04:30:49;6.05;;;0.90;;
49722;SDS011;43484;43.608;1.458;2023-07-30T04:33:15;6.55;;;0.90;;
49722;SDS011;43484;43.608;1.458;2023-07-30T04:35:42;7.28;;;1.15;;
49722;SDS011;43484;43.608;1.458;2023-07-30T04:38:08;4.55;;;0.75;;
49722;SDS011;43484;43.608;1.458;2023-07-30T04:40:35;4.57;;;1.00;;
49722;SDS011;43484;43.608;1.458;2023-07-30T04:43:02;3.67;;;1.05;;
49722;SDS011;43484;43.608;1.458;2023-07-30T04:45:28;6.93;;;1.35;;
49722;SDS011;43484;43.608;1.458;2023-07-30T04:47:55;5.35;;;1.00;;
49722;SDS011;43484;43.608;1.458;2023-07-30T04:50:22;5.50;;;1.00;;
49722;SDS011;43484;43.608;1.458;2023-07-30T04:52:49;3.53;;;0.93;;
49722;SDS011;43484;43.608;1.458;2023-07-30T04:55:16;5.70;;;0.90;;
49722;SDS011;43484;43.608;1.458;2023-07-30T04:57:42;5.30;;;0.93;;
49722;SDS011;43484;43.608;1.458;2023-07-30T05:00:09;4.20;;;1.10;;
49722;SDS011;43484;43.608;1.458;2023-07-30T05:02:36;2.15;;;0.60;;
49722;SDS011;43484;43.608;1.458;2023-07-30T05:05:03;4.63;;;1.08;;
49722;SDS011;43484;43.608;1.458;2023-07-30T05:07:30;5.93;;;1.27;;
49722;SDS011;43484;43.608;1.458;2023-07-30T05:09:56;5.47;;;0.90;;
49722;SDS011;43484;43.608;1.458;2023-07-30T05:12:23;7.03;;;1.48;;
49722;SDS011;43484;43.608;1.458;2023-07-30T05:14:50;6.05;;;1.02;;
49722;SDS011;43484;43.608;1.458;2023-07-30T05:17:18;5.15;;;1.25;;
49722;SDS011;43484;43.608;1.458;2023-07-30T05:19:44;5.40;;;1.13;;
49722;SDS011;43484;43.608;1.458;2023-07-30T05:22:11;1.95;;;0.70;;
49722;SDS011;43484;43.608;1.458;2023-07-30T05:24:38;5.18;;;1.27;;
49722;SDS011;43484;43.608;1.458;2023-07-30T05:27:05;8.18;;;1.40;;
49722;SDS011;43484;43.608;1.458;2023-07-30T05:29:33;6.55;;;0.82;;
49722;SDS011;43484;43.608;1.458;2023-07-30T05:32:00;6.88;;;0.95;;
49722;SDS011;43484;43.608;1.458;2023-07-30T05:34:26;6.22;;;1.08;;
49722;SDS011;43484;43.608;1.458;2023-07-30T05:36:53;7.38;;;1.20;;
49722;SDS011;43484;43.608;1.458;2023-07-30T05:39:20;9.18;;;1.20;;
49722;SDS011;43484;43.608;1.458;2023-07-30T05:41:46;4.35;;;0.90;;
49722;SDS011;43484;43.608;1.458;2023-07-30T05:44:13;2.58;;;1.10;;
49722;SDS011;43484;43.608;1.458;2023-07-30T05:46:39;6.32;;;1.10;;
49722;SDS011;43484;43.608;1.458;2023-07-30T05:49:06;4.90;;;1.10;;
49722;SDS011;43484;43.608;1.458;2023-07-30T05:51:32;8.20;;;1.40;;
49722;SDS011;43484;43.608;1.458;2023-07-30T05:53:59;4.82;;;0.90;;
49722;SDS011;43484;43.608;1.458;2023-07-30T05:56:26;2.33;;;0.88;;
49722;SDS011;43484;43.608;1.458;2023-07-30T05:58:53;3.08;;;0.95;;
49722;SDS011;43484;43.608;1.458;2023-07-30T06:01:20;6.10;;;0.80;;
49722;SDS011;43484;43.608;1.458;2023-07-30T06:03:46;6.68;;;1.60;;
49722;SDS011;43484;43.608;1.458;2023-07-30T06:06:13;8.05;;;1.63;;
49722;SDS011;43484;43.608;1.458;2023-07-30T06:08:39;8.07;;;1.42;;
49722;SDS011;43484;43.608;1.458;2023-07-30T06:11:06;5.05;;;0.98;;
49722;SDS011;43484;43.608;1.458;2023-07-30T06:13:33;4.35;;;0.80;;
49722;SDS011;43484;43.608;1.458;2023-07-30T06:16:00;3.78;;;1.05;;
49722;SDS011;43484;43.608;1.458;2023-07-30T06:18:27;4.30;;;0.90;;
49722;SDS011;43484;43.608;1.458;2023-07-30T06:20:53;4.88;;;0.80;;
49722;SDS011;43484;43.608;1.458;2023-07-30T06:23:20;5.90;;;1.38;;
49722;SDS011;43484;43.608;1.458;2023-07-30T06:25:47;6.43;;;1.45;;
49722;SDS011;43484;43.608;1.458;2023-07-30T06:28:13;5.07;;;1.10;;
49722;SDS011;43484;43.608;1.458;2023-07-30T06:30:40;5.82;;;1.13;;
49722;SDS011;43484;43.608;1.458;2023-07-30T06:33:06;4.05;;;1.00;;
49722;SDS011;43484;43.608;1.458;2023-07-30T06:35:33;5.65;;;1.42;;
49722;SDS011;43484;43.608;1.458;2023-07-30T06:38:00;5.75;;;1.15;;
49722;SDS011;43484;43.608;1.458;2023-07-30T06:40:27;5.32;;;1.35;;
49722;SDS011;43484;43.608;1.458;2023-07-30T06:42:53;10.30;;;1.30;;
49722;SDS011;43484;43.608;1.458;2023-07-30T06:45:20;4.80;;;1.05;;
49722;SDS011;43484;43.608;1.458;2023-07-30T06:47:46;8.77;;;1.20;;
49722;SDS011;43484;43.608;1.458;2023-07-30T06:50:13;8.15;;;1.50;;
49722;SDS011;43484;43.608;1.458;2023-07-30T06:52:40;3.88;;;1.08;;
49722;SDS011;43484;43.608;1.458;2023-07-30T06:55:06;3.28;;;0.82;;
49722;SDS011;43484;43.608;1.458;2023-07-30T06:57:33;4.35;;;1.23;;
49722;SDS011;43484;43.608;1.458;2023-07-30T07:00:00;4.28;;;1.02;;
49722;SDS011;43484;43.608;1.458;2023-07-30T07:02:27;4.15;;;1.10;;
49722;SDS011;43484;43.608;1.458;2023-07-30T07:04:53;4.78;;;1.10;;
49722;SDS011;43484;43.608;1.458;2023-07-30T07:07:20;5.78;;;1.13;;
49722;SDS011;43484;43.608;1.458;2023-07-30T07:09:47;4.55;;;1.38;;
49722;SDS011;43484;43.608;1.458;2023-07-30T07:12:15;4.07;;;1.25;;
49722;SDS011;43484;43.608;1.458;2023-07-30T07:14:41;5.40;;;1.02;;
49722;SDS011;43484;43.608;1.458;2023-07-30T07:17:09;5.85;;;1.23;;
49722;SDS011;43484;43.608;1.458;2023-07-30T07:19:36;4.57;;;1.10;;
49722;SDS011;43484;43.608;1.458;2023-07-30T07:22:06;4.15;;;1.15;;
49722;SDS011;43484;43.608;1.458;2023-07-30T07:24:32;10.10;;;1.42;;
49722;SDS011;43484;43.608;1.458;2023-07-30T07:26:59;6.38;;;0.88;;
49722;SDS011;43484;43.608;1.458;2023-07-30T07:29:26;6.47;;;1.15;;
49722;SDS011;43484;43.608;1.458;2023-07-30T07:31:52;5.75;;;0.85;;
49722;SDS011;43484;43.608;1.458;2023-07-30T07:34:19;11.82;;;1.52;;
49722;SDS011;43484;43.608;1.458;2023-07-30T07:36:46;4.35;;;1.00;;
49722;SDS011;43484;43.608;1.458;2023-07-30T07:39:13;6.05;;;1.15;;
49722;SDS011;43484;43.608;1.458;2023-07-30T07:41:39;10.50;;;1.27;;
49722;SDS011;43484;43.608;1.458;2023-07-30T07:44:06;6.32;;;1.00;;
49722;SDS011;43484;43.608;1.458;2023-07-30T07:46:33;2.83;;;0.82;;
49722;SDS011;43484;43.608;1.458;2023-07-30T07:48:59;6.57;;;1.20;;
49722;SDS011;43484;43.608;1.458;2023-07-30T07:51:26;8.20;;;1.58;;
49722;SDS011;43484;43.608;1.458;2023-07-30T07:53:52;9.60;;;1.60;;
49722;SDS011;43484;43.608;1.458;2023-07-30T07:56:19;7.03;;;1.30;;
49722;SDS011;43484;43.608;1.458;2023-07-30T07:58:46;3.58;;;0.85;;
49722;SDS011;43484;43.608;1.458;2023-07-30T08:01:12;5.55;;;1.40;;
49722;SDS011;43484;43.608;1.458;2023-07-30T08:03:39;7.28;;;1.48;;
49722;SDS011;43484;43.608;1.458;2023-07-30T08:06:06;6.15;;;1.25;;
49722;SDS011;43484;43.608;1.458;2023-07-30T08:08:33;7.75;;;1.38;;
49722;SDS011;43484;43.608;1.458;2023-07-30T08:11:04;8.20;;;1.42;;
49722;SDS011;43484;43.608;1.458;2023-07-30T08:13:32;4.55;;;1.45;;
49722;SDS011;43484;43.608;1.458;2023-07-30T08:15:58;8.18;;;1.48;;
49722;SDS011;43484;43.608;1.458;2023-07-30T08:18:25;8.38;;;1.63;;
49722;SDS011;43484;43.608;1.458;2023-07-30T08:20:52;9.38;;;1.70;;
49722;SDS011;43484;43.608;1.458;2023-07-30T08:23:19;3.95;;;1.33;;
49722;SDS011;43484;43.608;1.458;2023-07-30T08:25:45;9.18;;;1.77;;
49722;SDS011;43484;43.608;1.458;2023-07-30T08:28:12;4.22;;;1.15;;
49722;SDS011;43484;43.608;1.458;2023-07-30T08:30:39;7.60;;;1.33;;
49722;SDS011;43484;43.608;1.458;2023-07-30T08:33:05;5.75;;;1.25;;
49722;SDS011;43484;43.608;1.458;2023-07-30T08:35:32;10.25;;;1.88;;
49722;SDS011;43484;43.608;1.458;2023-07-30T08:37:59;7.68;;;1.85;;
49722;SDS011;43484;43.608;1.458;2023-07-30T08:40:25;6.30;;;1.20;;
49722;SDS011;43484;43.608;1.458;2023-07-30T08:42:52;7.50;;;1.10;;
49722;SDS011;43484;43.608;1.458;2023-07-30T08:45:20;6.65;;;1.20;;
49722;SDS011;43484;43.608;1.458;2023-07-30T08:47:47;8.85;;;1.80;;
49722;SDS011;43484;43.608;1.458;2023-07-30T08:50:13;5.38;;;1.48;;
49722;SDS011;43484;43.608;1.458;2023-07-30T08:52:40;3.88;;;1.40;;
49722;SDS011;43484;43.608;1.458;2023-07-30T08:55:08;7.28;;;1.88;;
49722;SDS011;43484;43.608;1.458;2023-07-30T08:57:37;6.82;;;1.88;;
49722;SDS011;43484;43.608;1.458;2023-07-30T09:00:06;8.23;;;1.30;;
49722;SDS011;43484;43.608;1.458;2023-07-30T09:02:38;5.75;;;1.20;;
49722;SDS011;43484;43.608;1.458;2023-07-30T09:05:09;4.28;;;1.33;;
49722;SDS011;43484;43.608;1.458;2023-07-30T09:07:37;5.72;;;1.30;;
49722;SDS011;43484;43.608;1.458;2023-07-30T09:10:04;4.30;;;1.45;;
49722;SDS011;43484;43.608;1.458;2023-07-30T09:12:34;11.45;;;1.25;;
49722;SDS011;43484;43.608;1.458;2023-07-30T09:15:05;6.88;;;2.08;;
49722;SDS011;43484;43.608;1.458;2023-07-30T09:17:35;5.80;;;1.67;;
49722;SDS011;43484;43.608;1.458;2023-07-30T09:20:02;9.25;;;1.20;;
49722;SDS011;43484;43.608;1.458;2023-07-30T09:22:31;8.55;;;1.67;;
49722;SDS011;43484;43.608;1.458;2023-07-30T09:25:07;7.47;;;1.67;;
49722;SDS011;43484;43.608;1.458;2023-07-30T09:27:34;8.48;;;2.22;;
49722;SDS011;43484;43.608;1.458;2023-07-30T09:30:02;6.82;;;1.30;;
49722;SDS011;43484;43.608;1.458;2023-07-30T09:32:33;7.72;;;1.35;;
49722;SDS011;43484;43.608;1.458;2023-07-30T09:35:10;6.65;;;1.23;;
49722;SDS011;43484;43.608;1.458;2023-07-30T09:37:40;6.90;;;1.38;;
49722;SDS011;43484;43.608;1.458;2023-07-30T09:40:08;5.57;;;1.23;;
49722;SDS011;43484;43.608;1.458;2023-07-30T09:42:38;10.18;;;1.77;;
49722;SDS011;43484;43.608;1.458;2023-07-30T09:45:08;5.60;;;1.55;;
49722;SDS011;43484;43.608;1.458;2023-07-30T09:47:46;8.73;;;1.42;;
49722;SDS011;43484;43.608;1.458;2023-07-30T09:50:14;7.40;;;1.67;;
49722;SDS011;43484;43.608;1.458;2023-07-30T09:52:42;7.50;;;1.70;;
49722;SDS011;43484;43.608;1.458;2023-07-30T09:55:10;9.88;;;1.58;;
49722;SDS011;43484;43.608;1.458;2023-07-30T09:57:38;7.25;;;1.70;;
49722;SDS011;43484;43.608;1.458;2023-07-30T10:00:05;8.60;;;2.03;;
49722;SDS011;43484;43.608;1.458;2023-07-30T10:02:39;7.78;;;1.55;;
49722;SDS011;43484;43.608;1.458;2023-07-30T10:05:16;5.10;;;1.13;;
49722;SDS011;43484;43.608;1.458;2023-07-30T10:07:46;6.60;;;1.20;;
49722;SDS011;43484;43.608;1.458;2023-07-30T10:10:18;9.85;;;1.83;;
49722;SDS011;43484;43.608;1.458;2023-07-30T10:12:46;5.68;;;1.52;;
49722;SDS011;43484;43.608;1.458;2023-07-30T10:15:14;4.75;;;1.33;;
49722;SDS011;43484;43.608;1.458;2023-07-30T10:17:45;4.63;;;1.40;;
49722;SDS011;43484;43.608;1.458;2023-07-30T10:20:25;8.65;;;1.02;;
49722;SDS011;43484;43.608;1.458;2023-07-30T10:22:54;9.05;;;1.17;;
49722;SDS011;43484;43.608;1.458;2023-07-30T10:25:22;8.55;;;1.23;;
49722;SDS011;43484;43.608;1.458;2023-07-30T10:27:54;5.95;;;1.27;;
49722;SDS011;43484;43.608;1.458;2023-07-30T10:30:20;6.38;;;1.30;;
49722;SDS011;43484;43.608;1.458;2023-07-30T10:35:42;9.30;;;1.42;;
49722;SDS011;43484;43.608;1.458;2023-07-30T10:38:19;4.65;;;1.10;;
49722;SDS011;43484;43.608;1.458;2023-07-30T10:43:43;5.38;;;1.13;;
49722;SDS011;43484;43.608;1.458;2023-07-30T10:46:14;2.97;;;1.20;;
49722;SDS011;43484;43.608;1.458;2023-07-30T10:48:43;5.53;;;1.33;;
49722;SDS011;43484;43.608;1.458;2023-07-30T10:51:12;5.78;;;1.23;;
49722;SDS011;43484;43.608;1.458;2023-07-30T10:53:43;7.20;;;1.77;;
49722;SDS011;43484;43.608;1.458;2023-07-30T10:56:11;7.40;;;1.23;;
49722;SDS011;43484;43.608;1.458;2023-07-30T10:58:39;7.75;;;1.35;;
49722;SDS011;43484;43.608;1.458;2023-07-30T11:01:06;4.55;;;1.13;;
49722;SDS011;43484;43.608;1.458;2023-07-30T11:03:35;7.13;;;0.98;;
49722;SDS011;43484;43.608;1.458;2023-07-30T11:06:02;3.28;;;1.15;;
49722;SDS011;43484;43.608;1.458;2023-07-30T11:08:33;5.22;;;1.20;;
49722;SDS011;43484;43.608;1.458;2023-07-30T11:11:04;4.65;;;1.50;;
49722;SDS011;43484;43.608;1.458;2023-07-30T11:13:38;7.00;;;1.27;;
49722;SDS011;43484;43.608;1.458;2023-07-30T11:16:06;4.53;;;1.42;;
49722;SDS011;43484;43.608;1.458;2023-07-30T11:18:34;7.70;;;1.10;;
49722;SDS011;43484;43.608;1.458;2023-07-30T11:21:12;3.60;;;1.10;;
49722;SDS011;43484;43.608;1.458;2023-07-30T11:23:43;4.45;;;1.08;;
49722;SDS011;43484;43.608;1.458;2023-07-30T11:26:15;5.57;;;1.25;;
49722;SDS011;43484;43.608;1.458;2023-07-30T11:28:43;5.55;;;1.20;;
49722;SDS011;43484;43.608;1.458;2023-07-30T11:31:14;2.83;;;1.08;;
49722;SDS011;43484;43.608;1.458;2023-07-30T11:33:43;5.53;;;1.40;;
49722;SDS011;43484;43.608;1.458;2023-07-30T11:36:21;7.80;;;1.52;;
49722;SDS011;43484;43.608;1.458;2023-07-30T11:38:49;7.22;;;1.02;;
49722;SDS011;43484;43.608;1.458;2023-07-30T11:41:19;6.63;;;1.30;;
49722;SDS011;43484;43.608;1.458;2023-07-30T11:43:48;4.88;;;1.48;;
49722;SDS011;43484;43.608;1.458;2023-07-30T11:46:15;5.43;;;1.10;;
49722;SDS011;43484;43.608;1.458;2023-07-30T11:48:47;5.25;;;1.13;;
49722;SDS011;43484;43.608;1.458;2023-07-30T11:51:23;6.80;;;1.20;;
49722;SDS011;43484;43.608;1.458;2023-07-30T11:53:52;8.23;;;1.67;;
49722;SDS011;43484;43.608;1.458;2023-07-30T11:56:27;6.90;;;1.50;;
49722;SDS011;43484;43.608;1.458;2023-07-30T11:59:01;3.90;;;1.08;;
49722;SDS011;43484;43.608;1.458;2023-07-30T12:01:35;6.82;;;1.70;;
49722;SDS011;43484;43.608;1.458;2023-07-30T12:04:04;3.85;;;1.00;;
49722;SDS011;43484;43.608;1.458;2023-07-30T12:06:42;5.10;;;1.00;;
49722;SDS011;43484;43.608;1.458;2023-07-30T12:09:11;5.00;;;1.27;;
49722;SDS011;43484;43.608;1.458;2023-07-30T12:14:25;2.85;;;1.00;;
49722;SDS011;43484;43.608;1.458;2023-07-30T12:16:57;5.93;;;1.40;;
49722;SDS011;43484;43.608;1.458;2023-07-30T12:19:24;4.97;;;1.23;;
49722;SDS011;43484;43.608;1.458;2023-07-30T12:21:51;4.82;;;1.13;;
49722;SDS011;43484;43.608;1.458;2023-07-30T12:24:18;3.33;;;1.00;;
49722;SDS011;43484;43.608;1.458;2023-07-30T12:26:45;4.88;;;1.27;;
49722;SDS011;43484;43.608;1.458;2023-07-30T12:29:12;5.03;;;1.30;;
49722;SDS011;43484;43.608;1.458;2023-07-30T12:31:39;4.85;;;1.20;;
49722;SDS011;43484;43.608;1.458;2023-07-30T12:34:06;6.03;;;1.25;;
49722;SDS011;43484;43.608;1.458;2023-07-30T12:36:32;4.63;;;1.10;;
49722;SDS011;43484;43.608;1.458;2023-07-30T12:38:59;6.95;;;1.10;;
49722;SDS011;43484;43.608;1.458;2023-07-30T12:41:25;2.47;;;1.00;;
49722;SDS011;43484;43.608;1.458;2023-07-30T12:43:53;4.25;;;0.90;;
49722;SDS011;43484;43.608;1.458;2023-07-30T12:46:20;3.75;;;1.08;;
49722;SDS011;43484;43.608;1.458;2023-07-30T12:48:47;3.97;;;1.45;;
49722;SDS011;43484;43.608;1.458;2023-07-30T12:51:14;4.55;;;0.93;;
49722;SDS011;43484;43.608;1.458;2023-07-30T12:53:41;5.30;;;1.00;;
49722;SDS011;43484;43.608;1.458;2023-07-30T12:56:07;5.80;;;1.30;;
49722;SDS011;43484;43.608;1.458;2023-07-30T12:58:34;3.33;;;0.93;;
49722;SDS011;43484;43.608;1.458;2023-07-30T13:01:02;4.88;;;1.00;;
49722;SDS011;43484;43.608;1.458;2023-07-30T13:03:30;4.95;;;1.10;;
49722;SDS011;43484;43.608;1.458;2023-07-30T13:05:57;5.57;;;1.10;;
49722;SDS011;43484;43.608;1.458;2023-07-30T13:08:24;7.95;;;1.27;;
49722;SDS011;43484;43.608;1.458;2023-07-30T13:10:51;5.07;;;1.10;;
49722;SDS011;43484;43.608;1.458;2023-07-30T13:13:17;8.77;;;1.63;;
49722;SDS011;43484;43.608;1.458;2023-07-30T13:15:44;7.97;;;1.50;;
49722;SDS011;43484;43.608;1.458;2023-07-30T13:18:11;2.97;;;1.30;;
49722;SDS011;43484;43.608;1.458;2023-07-30T13:20:37;3.85;;;1.15;;
49722;SDS011;43484;43.608;1.458;2023-07-30T13:23:04;5.55;;;1.00;;
49722;SDS011;43484;43.608;1.458;2023-07-30T13:25:30;7.05;;;1.50;;
49722;SDS011;43484;43.608;1.458;2023-07-30T13:27:57;4.93;;;1.10;;
49722;SDS011;43484;43.608;1.458;2023-07-30T13:30:24;4.32;;;1.45;;
49722;SDS011;43484;43.608;1.458;2023-07-30T13:32:50;4.22;;;1.15;;
49722;SDS011;43484;43.608;1.458;2023-07-30T13:35:17;7.38;;;1.10;;
49722;SDS011;43484;43.608;1.458;2023-07-30T13:37:44;5.18;;;1.23;;
49722;SDS011;43484;43.608;1.458;2023-07-30T13:40:10;3.95;;;1.17;;
49722;SDS011;43484;43.608;1.458;2023-07-30T13:42:37;8.68;;;1.60;;
49722;SDS011;43484;43.608;1.458;2023-07-30T13:45:04;6.00;;;1.30;;
49722;SDS011;43484;43.608;1.458;2023-07-30T13:47:31;3.35;;;1.00;;
49722;SDS011;43484;43.608;1.458;2023-07-30T13:49:58;3.00;;;0.95;;
49722;SDS011;43484;43.608;1.458;2023-07-30T13:52:25;3.88;;;1.35;;
49722;SDS011;43484;43.608;1.458;2023-07-30T13:54:52;5.40;;;1.27;;
49722;SDS011;43484;43.608;1.458;2023-07-30T13:57:22;4.97;;;1.13;;
49722;SDS011;43484;43.608;1.458;2023-07-30T13:59:50;8.57;;;1.23;;
49722;SDS011;43484;43.608;1.458;2023-07-30T14:02:20;9.95;;;1.75;;
49722;SDS011;43484;43.608;1.458;2023-07-30T14:04:47;7.25;;;1.35;;
49722;SDS011;43484;43.608;1.458;2023-07-30T14:07:13;3.67;;;1.40;;
49722;SDS011;43484;43.608;1.458;2023-07-30T14:09:40;7.10;;;1.67;;
49722;SDS011;43484;43.608;1.458;2023-07-30T14:12:08;3.92;;;1.42;;
49722;SDS011;43484;43.608;1.458;2023-07-30T14:14:35;3.45;;;1.40;;
49722;SDS011;43484;43.608;1.458;2023-07-30T14:17:01;4.25;;;1.67;;
49722;SDS011;43484;43.608;1.458;2023-07-30T14:19:33;4.18;;;1.15;;
49722;SDS011;43484;43.608;1.458;2023-07-30T14:22:00;4.80;;;1.60;;
49722;SDS011;43484;43.608;1.458;2023-07-30T14:24:27;3.65;;;1.35;;
49722;SDS011;43484;43.608;1.458;2023-07-30T14:26:54;4.80;;;1.50;;
49722;SDS011;43484;43.608;1.458;2023-07-30T14:29:20;5.72;;;1.23;;
49722;SDS011;43484;43.608;1.458;2023-07-30T14:31:47;5.35;;;1.60;;
49722;SDS011;43484;43.608;1.458;2023-07-30T14:34:14;3.63;;;1.42;;
49722;SDS011;43484;43.608;1.458;2023-07-30T14:36:40;4.07;;;1.50;;
49722;SDS011;43484;43.608;1.458;2023-07-30T14:39:07;6.97;;;1.80;;
49722;SDS011;43484;43.608;1.458;2023-07-30T14:41:33;3.42;;;1.33;;
49722;SDS011;43484;43.608;1.458;2023-07-30T14:44:00;10.95;;;1.90;;
49722;SDS011;43484;43.608;1.458;2023-07-30T14:46:28;5.15;;;1.75;;
49722;SDS011;43484;43.608;1.458;2023-07-30T14:48:54;3.80;;;1.38;;
49722;SDS011;43484;43.608;1.458;2023-07-30T14:51:21;6.38;;;1.75;;
49722;SDS011;43484;43.608;1.458;2023-07-30T14:53:48;8.63;;;1.80;;
49722;SDS011;43484;43.608;1.458;2023-07-30T14:56:14;6.75;;;1.77;;
49722;SDS011;43484;43.608;1.458;2023-07-30T14:58:41;7.03;;;1.85;;